sensor_id;sensor_type;location;lat;lon;timestamp;pressure;altitude;pressure_sealevel;temperature;humidity
55070;BME280;40967;52.070;8.596;2022-11-30T00:02:19;101019.22;;;7.10;100.00
55070;BME280;40967;52.070;8.596;2022-11-30T00:04:44;101023.56;;;7.11;100.00
55070;BME280;40967;52.070;8.596;2022-11-30T00:07:10;101018.88;;;7.06;100.00
55070;BME280;40967;52.070;8.596;2022-11-30T00:09:35;101012.53;;;7.01;100.00
55070;BME280;40967;52.070;8.596;2022-11-30T00:12:01;101015.69;;;6.98;100.00
55070;BME280;40967;52.070;8.596;2022-11-30T00:14:26;101027.31;;;6.98;100.00
55070;BME280;40967;52.070;8.596;2022-11-30T00:16:51;101029.66;;;6.95;100.00
55070;BME280;40967;52.070;8.596;2022-11-30T00:19:17;101024.28;;;6.95;100.00
55070;BME280;40967;52.070;8.596;2022-11-30T00:21:42;101008.41;;;6.86;100.00
55070;BME280;40967;52.070;8.596;2022-11-30T00:24:08;101029.19;;;6.98;100.00
55070;BME280;40967;52.070;8.596;2022-11-30T00:26:33;101025.53;;;6.92;100.00
55070;BME280;40967;52.070;8.596;2022-11-30T00:28:59;101029.06;;;6.93;100.00
55070;BME280;40967;52.070;8.596;2022-11-30T00:31:24;101022.25;;;6.90;100.00
55070;BME280;40967;52.070;8.596;2022-11-30T00:33:49;101031.19;;;6.90;100.00
55070;BME280;40967;52.070;8.596;2022-11-30T00:36:20;101032.13;;;6.96;100.00
55070;BME280;40967;52.070;8.596;2022-11-30T00:38:47;101029.66;;;6.95;100.00
55070;BME280;40967;52.070;8.596;2022-11-30T00:41:14;101024.50;;;6.93;100.00
55070;BME280;40967;52.070;8.596;2022-11-30T00:43:39;101019.91;;;6.82;100.00
55070;BME280;40967;52.070;8.596;2022-11-30T00:46:05;101028.59;;;6.84;100.00
55070;BME280;40967;52.070;8.596;2022-11-30T00:48:31;101039.50;;;6.89;100.00
55070;BME280;40967;52.070;8.596;2022-11-30T00:50:56;101047.00;;;6.87;100.00
55070;BME280;40967;52.070;8.596;2022-11-30T00:53:22;101045.38;;;6.86;100.00
55070;BME280;40967;52.070;8.596;2022-11-30T00:55:47;101038.66;;;6.88;100.00
55070;BME280;40967;52.070;8.596;2022-11-30T00:58:13;101026.72;;;6.84;100.00
55070;BME280;40967;52.070;8.596;2022-11-30T01:00:39;101036.81;;;6.89;100.00
55070;BME280;40967;52.070;8.596;2022-11-30T01:03:05;101035.84;;;6.83;100.00
55070;BME280;40967;52.070;8.596;2022-11-30T01:05:32;101034.66;;;6.79;100.00
55070;BME280;40967;52.070;8.596;2022-11-30T01:08:05;101050.06;;;6.79;100.00
55070;BME280;40967;52.070;8.596;2022-11-30T01:10:33;101043.22;;;6.76;100.00
55070;BME280;40967;52.070;8.596;2022-11-30T01:12:59;101050.84;;;6.79;100.00
55070;BME280;40967;52.070;8.596;2022-11-30T01:15:24;101036.81;;;6.77;100.00
55070;BME280;40967;52.070;8.596;2022-11-30T01:17:49;101023.63;;;6.69;100.00
55070;BME280;40967;52.070;8.596;2022-11-30T01:20:15;101033.63;;;6.80;100.00
55070;BME280;40967;52.070;8.596;2022-11-30T01:22:40;101029.88;;;6.81;100.00
55070;BME280;40967;52.070;8.596;2022-11-30T01:25:06;101033.16;;;6.83;100.00
55070;BME280;40967;52.070;8.596;2022-11-30T01:27:31;101029.19;;;6.86;100.00
55070;BME280;40967;52.070;8.596;2022-11-30T01:29:57;101041.59;;;6.87;100.00
55070;BME280;40967;52.070;8.596;2022-11-30T01:32:22;101039.50;;;6.89;100.00
55070;BME280;40967;52.070;8.596;2022-11-30T01:34:48;101036.56;;;6.90;100.00
55070;BME280;40967;52.070;8.596;2022-11-30T01:37:13;101044.19;;;6.93;100.00
55070;BME280;40967;52.070;8.596;2022-11-30T01:39:38;101045.25;;;6.93;100.00
55070;BME280;40967;52.070;8.596;2022-11-30T01:42:05;101060.59;;;6.92;100.00
55070;BME280;40967;52.070;8.596;2022-11-30T01:47:16;101041.59;;;6.87;100.00
55070;BME280;40967;52.070;8.596;2022-11-30T01:49:53;101045.72;;;6.89;100.00
55070;BME280;40967;52.070;8.596;2022-11-30T01:52:35;101053.13;;;6.94;100.00
55070;BME280;40967;52.070;8.596;2022-11-30T01:55:10;101050.78;;;6.98;100.00
55070;BME280;40967;52.070;8.596;2022-11-30T01:57:51;101054.75;;;6.95;100.00
55070;BME280;40967;52.070;8.596;2022-11-30T02:00:19;101048.53;;;6.95;100.00
55070;BME280;40967;52.070;8.596;2022-11-30T02:02:55;101063.06;;;6.93;100.00
55070;BME280;40967;52.070;8.596;2022-11-30T02:05:24;101055.69;;;6.89;100.00
55070;BME280;40967;52.070;8.596;2022-11-30T02:07:51;101054.13;;;6.81;100.00
55070;BME280;40967;52.070;8.596;2022-11-30T02:10:24;101057.91;;;6.80;100.00
55070;BME280;40967;52.070;8.596;2022-11-30T02:18:20;101061.25;;;6.64;100.00
55070;BME280;40967;52.070;8.596;2022-11-30T02:24:12;101060.91;;;6.61;100.00
55070;BME280;40967;52.070;8.596;2022-11-30T02:29:32;101057.34;;;6.49;100.00
55070;BME280;40967;52.070;8.596;2022-11-30T02:34:27;101060.97;;;6.43;100.00
55070;BME280;40967;52.070;8.596;2022-11-30T02:36:56;101059.44;;;6.47;100.00
55070;BME280;40967;52.070;8.596;2022-11-30T02:39:23;101044.94;;;6.48;100.00
55070;BME280;40967;52.070;8.596;2022-11-30T02:41:48;101047.84;;;6.46;100.00
55070;BME280;40967;52.070;8.596;2022-11-30T02:44:14;101062.28;;;6.52;100.00
55070;BME280;40967;52.070;8.596;2022-11-30T02:47:26;101061.66;;;6.50;100.00
55070;BME280;40967;52.070;8.596;2022-11-30T02:52:09;101060.03;;;6.49;100.00
55070;BME280;40967;52.070;8.596;2022-11-30T02:54:35;101055.91;;;6.46;100.00
55070;BME280;40967;52.070;8.596;2022-11-30T02:57:01;101053.38;;;6.51;100.00
55070;BME280;40967;52.070;8.596;2022-11-30T02:59:26;101047.25;;;6.44;100.00
55070;BME280;40967;52.070;8.596;2022-11-30T03:01:52;101057.13;;;6.50;100.00
55070;BME280;40967;52.070;8.596;2022-11-30T03:04:17;101057.69;;;6.41;100.00
55070;BME280;40967;52.070;8.596;2022-11-30T03:06:43;101068.00;;;6.44;100.00
55070;BME280;40967;52.070;8.596;2022-11-30T03:09:08;101054.84;;;6.36;100.00
55070;BME280;40967;52.070;8.596;2022-11-30T03:11:34;101049.91;;;6.33;100.00
55070;BME280;40967;52.070;8.596;2022-11-30T03:13:59;101066.81;;;6.40;100.00
55070;BME280;40967;52.070;8.596;2022-11-30T03:16:25;101063.31;;;6.39;100.00
55070;BME280;40967;52.070;8.596;2022-11-30T03:18:50;101061.88;;;6.37;100.00
55070;BME280;40967;52.070;8.596;2022-11-30T03:21:16;101060.91;;;6.31;100.00
55070;BME280;40967;52.070;8.596;2022-11-30T03:23:41;101073.50;;;6.37;100.00
55070;BME280;40967;52.070;8.596;2022-11-30T03:26:07;101067.50;;;6.35;100.00
55070;BME280;40967;52.070;8.596;2022-11-30T03:28:34;101063.59;;;6.31;100.00
55070;BME280;40967;52.070;8.596;2022-11-30T03:31:00;101066.19;;;6.38;100.00
55070;BME280;40967;52.070;8.596;2022-11-30T03:33:25;101071.16;;;6.41;100.00
55070;BME280;40967;52.070;8.596;2022-11-30T03:36:02;101071.38;;;6.39;100.00
55070;BME280;40967;52.070;8.596;2022-11-30T03:38:28;101066.00;;;6.39;100.00
55070;BME280;40967;52.070;8.596;2022-11-30T03:41:01;101069.25;;;6.41;100.00
55070;BME280;40967;52.070;8.596;2022-11-30T03:43:28;101062.72;;;6.37;100.00
55070;BME280;40967;52.070;8.596;2022-11-30T03:45:53;101076.97;;;6.38;100.00
55070;BME280;40967;52.070;8.596;2022-11-30T03:48:19;101072.63;;;6.25;100.00
55070;BME280;40967;52.070;8.596;2022-11-30T03:50:45;101080.25;;;6.28;100.00
55070;BME280;40967;52.070;8.596;2022-11-30T03:53:18;101075.88;;;6.27;100.00
55070;BME280;40967;52.070;8.596;2022-11-30T03:55:45;101081.63;;;6.31;100.00
55070;BME280;40967;52.070;8.596;2022-11-30T03:58:10;101070.06;;;6.30;100.00
55070;BME280;40967;52.070;8.596;2022-11-30T04:00:36;101080.97;;;6.35;100.00
55070;BME280;40967;52.070;8.596;2022-11-30T04:03:02;101073.50;;;6.37;100.00
55070;BME280;40967;52.070;8.596;2022-11-30T04:05:27;101077.59;;;6.40;100.00
55070;BME280;40967;52.070;8.596;2022-11-30T04:07:54;101072.56;;;6.43;100.00
55070;BME280;40967;52.070;8.596;2022-11-30T04:10:20;101079.38;;;6.46;100.00
55070;BME280;40967;52.070;8.596;2022-11-30T04:12:45;101086.63;;;6.45;100.00
55070;BME280;40967;52.070;8.596;2022-11-30T04:15:10;101092.84;;;6.46;100.00
55070;BME280;40967;52.070;8.596;2022-11-30T04:17:36;101082.88;;;6.46;100.00
55070;BME280;40967;52.070;8.596;2022-11-30T04:20:02;101078.53;;;6.45;100.00
55070;BME280;40967;52.070;8.596;2022-11-30T04:22:28;101087.00;;;6.49;100.00
55070;BME280;40967;52.070;8.596;2022-11-30T04:24:53;101085.81;;;6.45;100.00
55070;BME280;40967;52.070;8.596;2022-11-30T04:27:19;101079.25;;;6.41;100.00
55070;BME280;40967;52.070;8.596;2022-11-30T04:29:44;101094.13;;;6.43;100.00
55070;BME280;40967;52.070;8.596;2022-11-30T04:32:09;101091.56;;;6.48;100.00
55070;BME280;40967;52.070;8.596;2022-11-30T04:34:35;101082.88;;;6.46;100.00
55070;BME280;40967;52.070;8.596;2022-11-30T04:37:00;101084.78;;;6.46;100.00
55070;BME280;40967;52.070;8.596;2022-11-30T04:39:25;101090.53;;;6.49;100.00
55070;BME280;40967;52.070;8.596;2022-11-30T04:41:51;101084.66;;;6.52;100.00
55070;BME280;40967;52.070;8.596;2022-11-30T04:44:16;101084.53;;;6.47;100.00
55070;BME280;40967;52.070;8.596;2022-11-30T04:46:44;101085.72;;;6.51;100.00
55070;BME280;40967;52.070;8.596;2022-11-30T04:49:11;101090.66;;;6.54;100.00
55070;BME280;40967;52.070;8.596;2022-11-30T04:51:37;101092.28;;;6.55;100.00
55070;BME280;40967;52.070;8.596;2022-11-30T04:54:02;101090.66;;;6.54;100.00
55070;BME280;40967;52.070;8.596;2022-11-30T04:56:28;101095.81;;;6.56;100.00
55070;BME280;40967;52.070;8.596;2022-11-30T04:58:55;101094.56;;;6.58;100.00
55070;BME280;40967;52.070;8.596;2022-11-30T05:01:21;101098.88;;;6.59;100.00
55070;BME280;40967;52.070;8.596;2022-11-30T05:03:51;101096.53;;;6.63;100.00
55070;BME280;40967;52.070;8.596;2022-11-30T05:06:17;101100.44;;;6.67;100.00
55070;BME280;40967;52.070;8.596;2022-11-30T05:08:42;101102.91;;;6.68;100.00
55070;BME280;40967;52.070;8.596;2022-11-30T05:11:08;101099.38;;;6.68;100.00
55070;BME280;40967;52.070;8.596;2022-11-30T05:13:39;101098.91;;;6.71;100.00
55070;BME280;40967;52.070;8.596;2022-11-30T05:16:05;101100.19;;;6.68;100.00
55070;BME280;40967;52.070;8.596;2022-11-30T05:18:30;101107.22;;;6.69;100.00
55070;BME280;40967;52.070;8.596;2022-11-30T05:20:56;101105.59;;;6.68;100.00
55070;BME280;40967;52.070;8.596;2022-11-30T05:23:21;101107.31;;;6.63;100.00
55070;BME280;40967;52.070;8.596;2022-11-30T05:25:47;101099.78;;;6.53;100.00
55070;BME280;40967;52.070;8.596;2022-11-30T05:28:13;101102.63;;;6.58;100.00
55070;BME280;40967;52.070;8.596;2022-11-30T05:30:39;101106.84;;;6.54;100.00
55070;BME280;40967;52.070;8.596;2022-11-30T05:33:05;101106.38;;;6.57;100.00
55070;BME280;40967;52.070;8.596;2022-11-30T05:35:30;101118.34;;;6.61;100.00
55070;BME280;40967;52.070;8.596;2022-11-30T05:37:56;101115.66;;;6.61;100.00
55070;BME280;40967;52.070;8.596;2022-11-30T05:40:21;101117.66;;;6.66;100.00
55070;BME280;40967;52.070;8.596;2022-11-30T05:42:46;101117.88;;;6.64;100.00
55070;BME280;40967;52.070;8.596;2022-11-30T05:45:12;101127.75;;;6.70;100.00
55070;BME280;40967;52.070;8.596;2022-11-30T05:47:37;101128.19;;;6.67;100.00
55070;BME280;40967;52.070;8.596;2022-11-30T05:50:03;101116.69;;;6.60;100.00
55070;BME280;40967;52.070;8.596;2022-11-30T05:52:29;101128.91;;;6.63;100.00
55070;BME280;40967;52.070;8.596;2022-11-30T05:54:54;101122.06;;;6.60;100.00
55070;BME280;40967;52.070;8.596;2022-11-30T05:57:20;101135.50;;;6.67;100.00
55070;BME280;40967;52.070;8.596;2022-11-30T05:59:45;101142.28;;;6.69;100.00
55070;BME280;40967;52.070;8.596;2022-11-30T06:02:10;101138.56;;;6.70;100.00
55070;BME280;40967;52.070;8.596;2022-11-30T06:04:36;101142.66;;;6.73;100.00
55070;BME280;40967;52.070;8.596;2022-11-30T06:07:02;101144.06;;;6.75;100.00
55070;BME280;40967;52.070;8.596;2022-11-30T06:09:28;101147.56;;;6.76;100.00
55070;BME280;40967;52.070;8.596;2022-11-30T06:11:54;101139.72;;;6.74;100.00
55070;BME280;40967;52.070;8.596;2022-11-30T06:14:19;101137.25;;;6.73;100.00
55070;BME280;40967;52.070;8.596;2022-11-30T06:16:44;101147.13;;;6.79;100.00
55070;BME280;40967;52.070;8.596;2022-11-30T06:19:10;101142.41;;;6.74;100.00
55070;BME280;40967;52.070;8.596;2022-11-30T06:21:35;101139.22;;;6.66;100.00
55070;BME280;40967;52.070;8.596;2022-11-30T06:24:01;101127.94;;;6.57;100.00
55070;BME280;40967;52.070;8.596;2022-11-30T06:26:26;101145.41;;;6.55;100.00
55070;BME280;40967;52.070;8.596;2022-11-30T06:28:51;101143.38;;;6.50;100.00
55070;BME280;40967;52.070;8.596;2022-11-30T06:31:17;101145.03;;;6.51;100.00
55070;BME280;40967;52.070;8.596;2022-11-30T06:33:42;101146.31;;;6.49;100.00
55070;BME280;40967;52.070;8.596;2022-11-30T06:36:08;101154.28;;;6.55;100.00
55070;BME280;40967;52.070;8.596;2022-11-30T06:38:33;101148.91;;;6.55;100.00
55070;BME280;40967;52.070;8.596;2022-11-30T06:41:04;101143.66;;;6.60;100.00
55070;BME280;40967;52.070;8.596;2022-11-30T06:43:34;101160.19;;;6.64;100.00
55070;BME280;40967;52.070;8.596;2022-11-30T06:46:00;101151.88;;;6.65;100.00
55070;BME280;40967;52.070;8.596;2022-11-30T06:48:26;101152.69;;;6.66;100.00
55070;BME280;40967;52.070;8.596;2022-11-30T06:50:51;101162.00;;;6.70;100.00
55070;BME280;40967;52.070;8.596;2022-11-30T06:53:17;101161.03;;;6.64;100.00
55070;BME280;40967;52.070;8.596;2022-11-30T06:55:42;101163.63;;;6.71;100.00
55070;BME280;40967;52.070;8.596;2022-11-30T06:58:08;101174.19;;;6.72;100.00
55070;BME280;40967;52.070;8.596;2022-11-30T07:00:35;101171.34;;;6.67;100.00
55070;BME280;40967;52.070;8.596;2022-11-30T07:03:01;101175.09;;;6.66;100.00
55070;BME280;40967;52.070;8.596;2022-11-30T07:05:27;101175.09;;;6.66;100.00
55070;BME280;40967;52.070;8.596;2022-11-30T07:07:53;101191.88;;;6.68;100.00
55070;BME280;40967;52.070;8.596;2022-11-30T07:10:19;101183.78;;;6.68;100.00
55070;BME280;40967;52.070;8.596;2022-11-30T07:12:47;101184.97;;;6.72;100.00
55070;BME280;40967;52.070;8.596;2022-11-30T07:15:12;101177.94;;;6.71;100.00
55070;BME280;40967;52.070;8.596;2022-11-30T07:17:38;101176.66;;;6.74;100.00
55070;BME280;40967;52.070;8.596;2022-11-30T07:20:04;101178.31;;;6.75;100.00
55070;BME280;40967;52.070;8.596;2022-11-30T07:22:29;101183.69;;;6.75;100.00
55070;BME280;40967;52.070;8.596;2022-11-30T07:24:55;101176.66;;;6.74;100.00
55070;BME280;40967;52.070;8.596;2022-11-30T07:27:38;101182.44;;;6.77;100.00
55070;BME280;40967;52.070;8.596;2022-11-30T07:30:04;101181.38;;;6.78;100.00
55070;BME280;40967;52.070;8.596;2022-11-30T07:32:30;101187.34;;;6.80;100.00
55070;BME280;40967;52.070;8.596;2022-11-30T07:34:55;101183.47;;;6.76;100.00
55070;BME280;40967;52.070;8.596;2022-11-30T07:37:21;101184.97;;;6.72;100.00
55070;BME280;40967;52.070;8.596;2022-11-30T07:39:46;101185.53;;;6.63;100.00
55070;BME280;40967;52.070;8.596;2022-11-30T07:42:11;101180.59;;;6.60;100.00
55070;BME280;40967;52.070;8.596;2022-11-30T07:44:37;101191.97;;;6.62;100.00
55070;BME280;40967;52.070;8.596;2022-11-30T07:47:02;101187.16;;;6.64;100.00
55070;BME280;40967;52.070;8.596;2022-11-30T07:49:28;101191.59;;;6.58;100.00
55070;BME280;40967;52.070;8.596;2022-11-30T07:51:53;101191.00;;;6.56;100.00
55070;BME280;40967;52.070;8.596;2022-11-30T07:54:18;101195.47;;;6.62;100.00
55070;BME280;40967;52.070;8.596;2022-11-30T07:56:44;101206.41;;;6.67;100.00
55070;BME280;40967;52.070;8.596;2022-11-30T07:59:09;101207.22;;;6.68;100.00
55070;BME280;40967;52.070;8.596;2022-11-30T08:01:35;101208.66;;;6.70;100.00
55070;BME280;40967;52.070;8.596;2022-11-30T08:04:00;101217.13;;;6.74;100.00
55070;BME280;40967;52.070;8.596;2022-11-30T08:06:28;101208.19;;;6.73;100.00
55070;BME280;40967;52.070;8.596;2022-11-30T08:08:57;101214.78;;;6.77;100.00
55070;BME280;40967;52.070;8.596;2022-11-30T08:11:25;101219.97;;;6.79;100.00
55070;BME280;40967;52.070;8.596;2022-11-30T08:13:51;101216.44;;;6.78;100.00
55070;BME280;40967;52.070;8.596;2022-11-30T08:16:19;101213.50;;;6.80;100.00
55070;BME280;40967;52.070;8.596;2022-11-30T08:18:45;101207.72;;;6.76;100.00
55070;BME280;40967;52.070;8.596;2022-11-30T08:21:13;101216.78;;;6.82;100.00
55070;BME280;40967;52.070;8.596;2022-11-30T08:23:44;101217.41;;;6.84;100.00
55070;BME280;40967;52.070;8.596;2022-11-30T08:26:25;101220.09;;;6.84;100.00
55070;BME280;40967;52.070;8.596;2022-11-30T08:28:51;101224.66;;;6.83;100.00
55070;BME280;40967;52.070;8.596;2022-11-30T08:31:20;101215.06;;;6.87;100.00
55070;BME280;40967;52.070;8.596;2022-11-30T08:33:46;101216.69;;;6.88;100.00
55070;BME280;40967;52.070;8.596;2022-11-30T08:36:17;101229.16;;;6.89;100.00
55070;BME280;40967;52.070;8.596;2022-11-30T08:38:44;101229.16;;;6.89;100.00
55070;BME280;40967;52.070;8.596;2022-11-30T08:41:11;101218.56;;;6.88;100.00
55070;BME280;40967;52.070;8.596;2022-11-30T08:43:37;101232.88;;;6.88;100.00
55070;BME280;40967;52.070;8.596;2022-11-30T08:46:05;101225.84;;;6.87;100.00
55070;BME280;40967;52.070;8.596;2022-11-30T08:48:31;101237.00;;;6.91;100.00
55070;BME280;40967;52.070;8.596;2022-11-30T08:51:00;101238.88;;;6.90;100.00
55070;BME280;40967;52.070;8.596;2022-11-30T08:53:26;101243.00;;;6.93;100.00
55070;BME280;40967;52.070;8.596;2022-11-30T08:55:56;101245.72;;;6.93;100.00
55070;BME280;40967;52.070;8.596;2022-11-30T08:58:22;101248.59;;;6.91;100.00
55070;BME280;40967;52.070;8.596;2022-11-30T09:00:47;101255.81;;;6.98;100.00
55070;BME280;40967;52.070;8.596;2022-11-30T09:03:13;101262.63;;;7.00;100.00
55070;BME280;40967;52.070;8.596;2022-11-30T09:05:38;101261.78;;;7.00;100.00
55070;BME280;40967;52.070;8.596;2022-11-30T09:08:04;101261.78;;;7.00;100.00
55070;BME280;40967;52.070;8.596;2022-11-30T09:10:29;101258.88;;;7.01;100.00
55070;BME280;40967;52.070;8.596;2022-11-30T09:12:55;101256.78;;;7.03;100.00
55070;BME280;40967;52.070;8.596;2022-11-30T09:15:21;101253.00;;;7.04;100.00
55070;BME280;40967;52.070;8.596;2022-11-30T09:17:47;101255.94;;;7.03;100.00
55070;BME280;40967;52.070;8.596;2022-11-30T09:20:13;101248.06;;;7.01;100.00
55070;BME280;40967;52.070;8.596;2022-11-30T09:22:39;101267.94;;;7.07;100.00
55070;BME280;40967;52.070;8.596;2022-11-30T09:25:07;101273.94;;;7.09;100.00
55070;BME280;40967;52.070;8.596;2022-11-30T09:27:32;101271.22;;;7.09;100.00
55070;BME280;40967;52.070;8.596;2022-11-30T09:29:58;101274.72;;;7.09;100.00
55070;BME280;40967;52.070;8.596;2022-11-30T09:32:23;101274.59;;;7.04;100.00
55070;BME280;40967;52.070;8.596;2022-11-30T09:34:49;101272.59;;;7.00;100.00
55070;BME280;40967;52.070;8.596;2022-11-30T09:37:14;101272.81;;;6.98;100.00
55070;BME280;40967;52.070;8.596;2022-11-30T09:39:40;101272.13;;;7.03;100.00
55070;BME280;40967;52.070;8.596;2022-11-30T09:42:29;101264.03;;;7.03;100.00
55070;BME280;40967;52.070;8.596;2022-11-30T09:45:02;101270.84;;;7.05;100.00
55070;BME280;40967;52.070;8.596;2022-11-30T09:47:34;101269.56;;;7.08;100.00
55070;BME280;40967;52.070;8.596;2022-11-30T09:50:14;101275.56;;;7.10;100.00
55070;BME280;40967;52.070;8.596;2022-11-30T09:52:46;101279.09;;;7.10;100.00
55070;BME280;40967;52.070;8.596;2022-11-30T09:55:19;101272.50;;;7.06;100.00
55070;BME280;40967;52.070;8.596;2022-11-30T09:57:50;101284.47;;;7.10;100.00
55070;BME280;40967;52.070;8.596;2022-11-30T10:00:19;101276.03;;;7.07;100.00
55070;BME280;40967;52.070;8.596;2022-11-30T10:02:47;101278.50;;;7.08;100.00
55070;BME280;40967;52.070;8.596;2022-11-30T10:05:44;101281.19;;;7.08;100.00
55070;BME280;40967;52.070;8.596;2022-11-30T10:19:34;101278.06;;;6.93;100.00
55070;BME280;40967;52.070;8.596;2022-11-30T10:24:48;101281.16;;;6.97;100.00
55070;BME280;40967;52.070;8.596;2022-11-30T10:30:21;101280.91;;;6.98;100.00
55070;BME280;40967;52.070;8.596;2022-11-30T10:32:53;101276.66;;;6.90;100.00
55070;BME280;40967;52.070;8.596;2022-11-30T10:35:27;101276.41;;;6.92;100.00
55070;BME280;40967;52.070;8.596;2022-11-30T10:37:59;101277.25;;;6.93;100.00
55070;BME280;40967;52.070;8.596;2022-11-30T10:40:36;101273.94;;;6.90;100.00
55070;BME280;40967;52.070;8.596;2022-11-30T10:45:31;101279.34;;;6.90;100.00
55070;BME280;40967;52.070;8.596;2022-11-30T10:48:06;101267.34;;;6.86;100.00
55070;BME280;40967;52.070;8.596;2022-11-30T10:50:35;101264.88;;;6.85;100.00
55070;BME280;40967;52.070;8.596;2022-11-30T10:53:01;101272.75;;;6.86;100.00
55070;BME280;40967;52.070;8.596;2022-11-30T10:55:43;101266.78;;;6.84;100.00
55070;BME280;40967;52.070;8.596;2022-11-30T11:06:32;101268.88;;;6.82;100.00
55070;BME280;40967;52.070;8.596;2022-11-30T11:08:58;101272.38;;;6.83;100.00
55070;BME280;40967;52.070;8.596;2022-11-30T11:13:51;101270.28;;;6.85;100.00
55070;BME280;40967;52.070;8.596;2022-11-30T11:16:17;101262.03;;;6.80;100.00
55070;BME280;40967;52.070;8.596;2022-11-30T11:18:54;101275.28;;;6.81;100.00
55070;BME280;40967;52.070;8.596;2022-11-30T11:21:21;101272.00;;;6.79;100.00
55070;BME280;40967;52.070;8.596;2022-11-30T11:23:52;101276.13;;;6.82;100.00
55070;BME280;40967;52.070;8.596;2022-11-30T11:26:29;101277.56;;;6.84;100.00
55070;BME280;40967;52.070;8.596;2022-11-30T11:28:56;101273.22;;;6.83;100.00
55070;BME280;40967;52.070;8.596;2022-11-30T11:31:38;101265.13;;;6.83;100.00
55070;BME280;40967;52.070;8.596;2022-11-30T11:34:23;101265.13;;;6.83;100.00
55070;BME280;40967;52.070;8.596;2022-11-30T11:39:31;101271.84;;;6.93;100.00
55070;BME280;40967;52.070;8.596;2022-11-30T11:41:56;101277.00;;;6.94;100.00
55070;BME280;40967;52.070;8.596;2022-11-30T11:44:25;101279.25;;;6.97;100.00
55070;BME280;40967;52.070;8.596;2022-11-30T11:46:58;101275.94;;;6.95;100.00
55070;BME280;40967;52.070;8.596;2022-11-30T11:52:00;101278.44;;;6.97;100.00
55070;BME280;40967;52.070;8.596;2022-11-30T11:54:38;101275.53;;;6.98;100.00
55070;BME280;40967;52.070;8.596;2022-11-30T11:57:09;101281.72;;;6.99;100.00
55070;BME280;40967;52.070;8.596;2022-11-30T12:02:27;101275.75;;;6.97;100.00
55070;BME280;40967;52.070;8.596;2022-11-30T12:05:20;101290.88;;;6.98;100.00
55070;BME280;40967;52.070;8.596;2022-11-30T12:12:39;101286.06;;;7.00;100.00
55070;BME280;40967;52.070;8.596;2022-11-30T12:15:09;101294.06;;;7.06;100.00
55070;BME280;40967;52.070;8.596;2022-11-30T12:20:44;101294.06;;;7.06;100.00
55070;BME280;40967;52.070;8.596;2022-11-30T12:26:11;101300.31;;;7.07;100.00
55070;BME280;40967;52.070;8.596;2022-11-30T12:28:54;101296.19;;;7.04;100.00
55070;BME280;40967;52.070;8.596;2022-11-30T12:31:34;101304.28;;;7.04;100.00
55070;BME280;40967;52.070;8.596;2022-11-30T12:39:07;101300.31;;;7.07;100.00
55070;BME280;40967;52.070;8.596;2022-11-30T12:54:41;101299.63;;;7.11;100.00
55070;BME280;40967;52.070;8.596;2022-11-30T12:57:14;101307.25;;;7.14;100.00
55070;BME280;40967;52.070;8.596;2022-11-30T13:02:50;101306.44;;;7.14;100.00
55070;BME280;40967;52.070;8.596;2022-11-30T13:05:28;101298.59;;;7.12;100.00
55070;BME280;40967;52.070;8.596;2022-11-30T13:08:21;101306.69;;;7.12;100.00
55070;BME280;40967;52.070;8.596;2022-11-30T13:11:02;101295.28;;;7.10;100.00
55070;BME280;40967;52.070;8.596;2022-11-30T13:13:32;101305.84;;;7.12;100.00
55070;BME280;40967;52.070;8.596;2022-11-30T13:16:03;101314.31;;;7.15;100.00
55070;BME280;40967;52.070;8.596;2022-11-30T13:18:30;101312.63;;;7.14;100.00
55070;BME280;40967;52.070;8.596;2022-11-30T13:21:07;101311.84;;;7.14;100.00
55070;BME280;40967;52.070;8.596;2022-11-30T13:23:40;101306.31;;;7.09;100.00
55070;BME280;40967;52.070;8.596;2022-11-30T13:32:08;101319.19;;;7.07;100.00
55070;BME280;40967;52.070;8.596;2022-11-30T13:34:35;101307.91;;;6.98;100.00
55070;BME280;40967;52.070;8.596;2022-11-30T13:37:17;101325.47;;;7.01;100.00
55070;BME280;40967;52.070;8.596;2022-11-30T13:44:44;101329.84;;;7.02;100.00
55070;BME280;40967;52.070;8.596;2022-11-30T13:49:58;101322.41;;;6.97;100.00
55070;BME280;40967;52.070;8.596;2022-11-30T13:55:58;101312.78;;;6.89;100.00
55070;BME280;40967;52.070;8.596;2022-11-30T13:58:25;101310.50;;;6.86;100.00
55070;BME280;40967;52.070;8.596;2022-11-30T14:03:44;101321.66;;;6.90;100.00
55070;BME280;40967;52.070;8.596;2022-11-30T14:11:57;101329.75;;;6.90;100.00
55070;BME280;40967;52.070;8.596;2022-11-30T14:14:43;101328.97;;;6.89;100.00
55070;BME280;40967;52.070;8.596;2022-11-30T14:17:32;101325.88;;;6.86;100.00
55070;BME280;40967;52.070;8.596;2022-11-30T14:20:06;101330.91;;;6.82;100.00
55070;BME280;40967;52.070;8.596;2022-11-30T14:22:33;101325.00;;;6.74;100.00
55070;BME280;40967;52.070;8.596;2022-11-30T14:25:00;101317.41;;;6.64;100.00
55070;BME280;40967;52.070;8.596;2022-11-30T14:27:28;101333.50;;;6.71;100.00
55070;BME280;40967;52.070;8.596;2022-11-30T14:29:58;101341.38;;;6.72;100.00
55070;BME280;40967;52.070;8.596;2022-11-30T14:32:32;101334.56;;;6.70;100.00
55070;BME280;40967;52.070;8.596;2022-11-30T14:35:16;101337.19;;;6.76;100.00
55070;BME280;40967;52.070;8.596;2022-11-30T14:37:45;101333.50;;;6.71;100.00
55070;BME280;40967;52.070;8.596;2022-11-30T14:40:17;101336.34;;;6.76;100.00
55070;BME280;40967;52.070;8.596;2022-11-30T14:42:57;101329.78;;;6.72;100.00
55070;BME280;40967;52.070;8.596;2022-11-30T14:45:33;101340.34;;;6.73;100.00
55070;BME280;40967;52.070;8.596;2022-11-30T14:48:13;101340.13;;;6.75;100.00
55070;BME280;40967;52.070;8.596;2022-11-30T14:50:56;101349.69;;;6.71;100.00
55070;BME280;40967;52.070;8.596;2022-11-30T14:53:35;101352.63;;;6.69;100.00